Terminal Aerodrome Forecast
Issued by NWS Memphis, TN

Home | Current Version | Previous Version | Text Only | Print | Product List | Glossary On
Versions: 1 2 3 4 5 6 7 8 9 10 11 12 13 14 15 16 17 18 19 20 21 22 23 24 25 26 27
000
FTUS44 KMEG 282327
TAFMEM
TAF
KMEM 282327Z 2900/2924 13005KT P6SM SCT040 BKN250
     FM290600 14004KT P6SM SCT005 BKN250
      TEMPO 2909/2913 5SM BR OVC005
     FM291400 19006KT P6SM SCT005 OVC070
     FM291600 17007KT P6SM VCTS BKN035CB=

USA.gov is the U.S. government's official web portal to all federal, state and local government web resources and services.